createdAt,value
2022-12-14T00:00:49.790Z,-6.50
2022-12-14T00:05:42.291Z,-6.50
2022-12-14T00:10:35.423Z,-6.40
2022-12-14T00:15:27.463Z,-6.40
2022-12-14T00:20:19.623Z,-6.40
2022-12-14T00:25:12.523Z,-6.30
2022-12-14T00:30:04.958Z,-6.20
2022-12-14T00:34:56.876Z,-6.20
2022-12-14T00:39:48.901Z,-6.00
2022-12-14T00:44:40.874Z,-6.10
2022-12-14T00:49:32.816Z,-6.20
2022-12-14T00:54:24.840Z,-6.10
2022-12-14T00:59:22.862Z,-6.00
2022-12-14T01:04:17.715Z,-5.80
2022-12-14T01:09:09.780Z,-5.40
2022-12-14T01:14:01.862Z,-4.70
2022-12-14T01:18:54.042Z,-4.30
2022-12-14T01:23:48.627Z,-4.00
2022-12-14T01:28:41.052Z,-3.70
2022-12-14T01:33:33.037Z,-3.60
2022-12-14T01:38:24.988Z,-3.50
2022-12-14T01:43:16.990Z,-3.50
2022-12-14T01:48:13.224Z,-3.50
2022-12-14T01:53:09.930Z,-3.30
2022-12-14T01:58:12.036Z,-3.40
2022-12-14T02:03:16.405Z,-3.30
2022-12-14T02:15:06.197Z,-3.40
2022-12-14T02:19:59.527Z,-3.30
2022-12-14T02:25:12.543Z,-3.30
2022-12-14T02:30:17.569Z,-3.30
2022-12-14T02:35:18.492Z,-3.30
2022-12-14T02:40:22.939Z,-3.30
2022-12-14T02:45:22.530Z,-3.30
2022-12-14T02:50:26.121Z,-3.30
2022-12-14T02:55:26.158Z,-3.30
2022-12-14T03:00:19.645Z,-3.30
2022-12-14T03:05:11.791Z,-3.20
2022-12-14T03:10:17.555Z,-3.20
2022-12-14T03:15:12.535Z,-3.20
2022-12-14T03:20:12.774Z,-3.10
2022-12-14T03:25:16.499Z,-3.10
2022-12-14T03:30:36.866Z,-3.10
2022-12-14T03:35:42.603Z,-3.10
2022-12-14T03:40:57.591Z,-3.10
2022-12-14T03:46:01.599Z,-3.10
2022-12-14T03:51:02.831Z,-3.10
2022-12-14T03:56:29.104Z,-3.00
2022-12-14T04:01:25.549Z,-3.00
2022-12-14T04:06:51.888Z,-3.00
2022-12-14T04:12:09.888Z,-3.00
2022-12-14T04:17:29.380Z,-3.00
2022-12-14T04:22:29.035Z,-3.00
2022-12-14T04:27:25.027Z,-3.00
2022-12-14T04:32:35.639Z,-3.00
2022-12-14T04:37:29.012Z,-3.00
2022-12-14T04:42:28.100Z,-3.00
2022-12-14T04:47:23.380Z,-3.00
2022-12-14T04:52:44.178Z,-3.00
2022-12-14T04:58:01.212Z,-3.00
2022-12-14T05:03:04.513Z,-3.10
2022-12-14T05:08:22.859Z,-3.00
2022-12-14T05:13:49.050Z,-2.90
2022-12-14T05:18:43.723Z,-2.90
2022-12-14T05:23:35.752Z,-2.90
2022-12-14T05:28:27.760Z,-2.90
2022-12-14T05:33:20.423Z,-2.90
2022-12-14T05:38:13.283Z,-2.90
2022-12-14T05:43:11.052Z,-2.90
2022-12-14T05:48:03.040Z,-2.90
2022-12-14T05:52:55.896Z,-2.90
2022-12-14T05:57:47.939Z,-2.80
2022-12-14T06:02:39.915Z,-2.80
2022-12-14T06:07:31.875Z,-2.80
2022-12-14T06:12:23.940Z,-2.80
2022-12-14T06:17:15.892Z,-2.80
2022-12-14T06:22:07.834Z,-2.80
2022-12-14T06:26:59.765Z,-2.80
2022-12-14T06:31:51.782Z,-2.80
2022-12-14T06:36:43.778Z,-2.70
2022-12-14T06:41:35.827Z,-2.70
2022-12-14T06:46:27.902Z,-2.70
2022-12-14T06:51:21.490Z,-2.70
2022-12-14T06:56:15.690Z,-2.60
2022-12-14T07:01:10.503Z,-2.60
2022-12-14T07:06:03.733Z,-2.60
2022-12-14T07:11:01.931Z,-2.50
2022-12-14T07:15:56.476Z,-2.50
2022-12-14T07:21:03.528Z,-2.50
2022-12-14T07:26:05.990Z,-2.50
2022-12-14T07:31:01.627Z,-2.40
2022-12-14T07:36:09.221Z,-2.30
2022-12-14T07:41:05.154Z,-2.30
2022-12-14T07:46:02.506Z,-2.20
2022-12-14T07:50:54.620Z,-2.20
2022-12-14T07:55:46.865Z,-2.10
2022-12-14T08:00:38.794Z,-2.00
2022-12-14T08:05:31.251Z,-1.90
2022-12-14T08:10:23.218Z,-1.80
2022-12-14T08:15:15.242Z,-1.70
2022-12-14T08:20:07.574Z,-1.60
2022-12-14T08:24:59.627Z,-1.60
2022-12-14T08:29:51.538Z,-1.50
2022-12-14T08:34:43.533Z,-1.40
2022-12-14T08:39:35.484Z,-1.30
2022-12-14T08:44:27.648Z,-1.00
2022-12-14T08:49:19.853Z,-1.00
2022-12-14T08:54:11.940Z,-0.90
2022-12-14T08:59:03.958Z,-0.60
2022-12-14T09:03:56.227Z,-0.40
2022-12-14T09:08:49.904Z,-0.30
2022-12-14T09:13:43.433Z,-0.20
2022-12-14T09:18:35.742Z,-0.20
2022-12-14T09:23:29.917Z,-0.10
2022-12-14T09:28:22.240Z,-0.10
2022-12-14T09:33:14.483Z,0.00
2022-12-14T09:38:06.492Z,-0.10
2022-12-14T09:43:05.121Z,0.00
2022-12-14T09:48:36.335Z,0.10
2022-12-14T09:53:29.330Z,0.00
2022-12-14T09:58:23.184Z,0.20
2022-12-14T10:03:53.094Z,0.20
2022-12-14T10:09:06.740Z,0.10
2022-12-14T10:14:20.504Z,0.40
2022-12-14T10:19:30.707Z,0.40
2022-12-14T10:24:34.290Z,0.40
2022-12-14T10:29:40.836Z,0.20
2022-12-14T10:34:34.722Z,0.30
2022-12-14T10:39:37.949Z,0.50
2022-12-14T10:45:39.248Z,0.80
2022-12-14T10:50:41.415Z,0.70
2022-12-14T10:55:39.904Z,0.90
2022-12-14T11:00:31.852Z,0.70
2022-12-14T11:05:40.045Z,0.60
2022-12-14T11:10:32.768Z,0.80
2022-12-14T11:15:40.496Z,0.60
2022-12-14T11:20:33.584Z,0.50
2022-12-14T11:25:42.211Z,0.50
2022-12-14T11:30:34.209Z,0.40
2022-12-14T11:35:26.236Z,0.40
2022-12-14T11:40:27.648Z,0.30
2022-12-14T11:45:25.555Z,0.40
2022-12-14T11:50:25.458Z,0.40
2022-12-14T11:55:26.700Z,0.30
2022-12-14T12:00:25.456Z,0.30
2022-12-14T12:05:20.599Z,0.50
2022-12-14T12:10:12.485Z,0.30
2022-12-14T12:15:05.587Z,0.40
2022-12-14T12:19:58.208Z,0.40
2022-12-14T12:25:24.848Z,0.30
2022-12-14T12:30:28.524Z,0.30
2022-12-14T12:35:45.918Z,0.40
2022-12-14T12:40:49.770Z,0.20
2022-12-14T12:45:53.235Z,0.10
2022-12-14T12:50:51.738Z,0.20
2022-12-14T12:55:52.224Z,0.10
2022-12-14T13:00:45.819Z,0.10
2022-12-14T13:05:46.611Z,0.10
2022-12-14T13:11:17.211Z,0.00
2022-12-14T13:16:27.874Z,0.10
2022-12-14T13:21:42.279Z,0.10
2022-12-14T13:27:17.766Z,0.00
2022-12-14T13:32:21.874Z,0.10
2022-12-14T13:37:26.194Z,0.10
2022-12-14T13:42:52.324Z,0.20
2022-12-14T13:47:54.576Z,0.30
2022-12-14T13:52:49.082Z,0.20
2022-12-14T13:57:41.631Z,0.20
2022-12-14T14:02:33.655Z,0.10
2022-12-14T14:07:25.614Z,0.20
2022-12-14T14:12:24.064Z,0.10
2022-12-14T14:17:25.357Z,0.10
2022-12-14T14:22:27.587Z,0.10
2022-12-14T14:27:22.165Z,0.00
2022-12-14T14:32:42.150Z,0.00
2022-12-14T14:37:36.698Z,0.00
2022-12-14T14:42:31.981Z,0.00
2022-12-14T14:47:37.066Z,0.00
2022-12-14T14:52:41.667Z,0.10
2022-12-14T14:58:22.063Z,0.00
2022-12-14T15:03:15.604Z,-0.10
2022-12-14T15:08:26.732Z,-0.10
2022-12-14T15:13:29.821Z,-0.10
2022-12-14T15:18:26.827Z,-0.10
2022-12-14T15:23:19.121Z,-0.10
2022-12-14T15:28:21.419Z,0.00
2022-12-14T15:33:24.598Z,-0.10
2022-12-14T15:38:25.698Z,-0.10
2022-12-14T15:43:20.983Z,-0.10
2022-12-14T15:48:24.998Z,0.00
2022-12-14T15:53:39.539Z,-0.10
2022-12-14T15:58:37.280Z,0.00
2022-12-14T16:03:38.963Z,-0.10
2022-12-14T16:08:34.733Z,0.00
2022-12-14T16:13:33.797Z,-0.10
2022-12-14T16:18:27.150Z,0.00
2022-12-14T16:23:19.076Z,-0.10
2022-12-14T16:28:31.376Z,-0.10
2022-12-14T16:33:24.722Z,-0.20
2022-12-14T16:38:17.763Z,-0.30
2022-12-14T16:43:32.957Z,-0.30
2022-12-14T16:48:26.519Z,-0.40
2022-12-14T16:53:29.564Z,-0.50
2022-12-14T16:58:22.265Z,-0.50
2022-12-14T17:03:23.202Z,-0.50
2022-12-14T17:08:19.825Z,-0.50
2022-12-14T17:13:11.927Z,-0.60
2022-12-14T17:18:05.191Z,-0.60
2022-12-14T17:23:01.821Z,-0.70
2022-12-14T17:28:07.120Z,-0.60
2022-12-14T17:32:59.314Z,-0.60
2022-12-14T17:37:51.509Z,-0.70
2022-12-14T17:42:49.402Z,-0.60
2022-12-14T17:47:41.383Z,-0.60
2022-12-14T17:52:34.597Z,-0.60
2022-12-14T17:57:32.997Z,-0.70
2022-12-14T18:02:30.543Z,-0.70
2022-12-14T18:07:22.617Z,-0.70
2022-12-14T18:12:24.173Z,-0.80
2022-12-14T18:17:16.635Z,-0.90
2022-12-14T18:22:10.111Z,-1.00
2022-12-14T18:27:02.153Z,-1.10
2022-12-14T18:31:54.251Z,-1.10
2022-12-14T18:36:46.285Z,-1.10
2022-12-14T18:41:38.259Z,-1.00
2022-12-14T18:46:30.275Z,-1.00
2022-12-14T18:51:24.004Z,-1.00
2022-12-14T18:56:16.066Z,-1.00
2022-12-14T19:01:13.489Z,-1.10
2022-12-14T19:06:42.471Z,-1.10
2022-12-14T19:11:39.420Z,-1.20
2022-12-14T19:16:31.523Z,-1.20
2022-12-14T19:21:25.758Z,-1.30
2022-12-14T19:26:17.845Z,-1.40
2022-12-14T19:31:11.324Z,-1.30
2022-12-14T19:36:08.449Z,-1.30
2022-12-14T19:46:18.476Z,-1.30
2022-12-14T19:51:12.854Z,-1.40
2022-12-14T19:56:05.621Z,-1.40
2022-12-14T20:00:57.659Z,-1.50
2022-12-14T20:05:51.325Z,-1.40
2022-12-14T20:10:43.638Z,-1.40
2022-12-14T20:15:35.958Z,-1.40
2022-12-14T20:20:31.417Z,-1.40
2022-12-14T20:25:32.107Z,-1.70
2022-12-14T20:35:33.568Z,-2.30
2022-12-14T20:40:25.913Z,-2.60
2022-12-14T20:45:18.062Z,-2.70
2022-12-14T20:50:11.320Z,-2.80
2022-12-14T20:55:04.970Z,-2.90
2022-12-14T20:59:59.400Z,-2.90
2022-12-14T21:04:53.098Z,-3.00
2022-12-14T21:09:45.054Z,-3.20
2022-12-14T21:14:39.425Z,-3.30
2022-12-14T21:19:32.794Z,-3.50
2022-12-14T21:25:00.536Z,-3.70
2022-12-14T21:29:37.974Z,-3.80
2022-12-14T21:34:30.029Z,-3.90
2022-12-14T21:39:22.030Z,-3.90
2022-12-14T21:44:14.571Z,-3.90
2022-12-14T21:49:06.821Z,-4.00
2022-12-14T21:53:58.810Z,-4.20
2022-12-14T21:59:04.054Z,-4.30
2022-12-14T22:03:56.305Z,-4.30
2022-12-14T22:08:48.226Z,-4.50
2022-12-14T22:13:40.287Z,-4.50
2022-12-14T22:18:32.178Z,-4.60
2022-12-14T22:23:24.185Z,-4.70
2022-12-14T22:28:16.474Z,-4.80
2022-12-14T22:33:11.230Z,-4.90
2022-12-14T22:38:05.679Z,-5.00
2022-12-14T22:48:09.484Z,-5.10
2022-12-14T22:53:01.429Z,-5.10
2022-12-14T22:57:54.419Z,-5.20
2022-12-14T23:02:48.629Z,-5.30
2022-12-14T23:13:10.005Z,-5.30
2022-12-14T23:18:21.805Z,-5.40
2022-12-14T23:23:32.664Z,-5.50
2022-12-14T23:28:43.248Z,-5.60
2022-12-14T23:40:40.537Z,-5.70
2022-12-14T23:45:53.040Z,-5.80
2022-12-14T23:51:03.763Z,-5.90
2022-12-14T23:56:14.182Z,-6.00
